Aviation Digital Data Service (ADDS)

Output produced by METARs form (0035 UTC 01 December 2022)
found at http://aviationweather.gov/metar/data/
 
KDMN 302335Z 0100/0124 10006KT P6SM SKC 
     FM010300 05005KT P6SM SCT250 
     FM011800 18006KT P6SM SKC